Time;durP1;ratioP1;P1;durP2;ratioP2;P2;SDS_P1;SDS_P2;PMS_P1;PMS_P2;Temp;Humidity;BMP_temperature;BMP_pressure;BME280_temperature;BME280_humidity;BME280_pressure;Samples;Min_cycle;Max_cycle;Signal;HPM_P1;HPM_P2
2023/06/10 00:01:46;;;;;;;13.47;5.03;;;17.30;99.90;;;;;;4970319;28;21031;-74
2023/06/10 00:04:13;;;;;;;9.80;4.97;;;17.30;99.90;;;;;;4970357;28;20970;-74
2023/06/10 00:06:43;;;;;;;7.43;4.67;;;17.30;99.90;;;;;;4969550;28;20482;-75
2023/06/10 00:09:10;;;;;;;6.87;4.43;;;17.20;99.90;;;;;;4967690;28;20454;-72
2023/06/10 00:11:39;;;;;;;7.50;4.83;;;17.10;99.90;;;;;;4972275;28;20462;-74
2023/06/10 00:14:07;;;;;;;9.70;5.60;;;17.10;99.90;;;;;;4969743;28;20474;-73
2023/06/10 00:16:34;;;;;;;15.60;5.77;;;17.00;99.90;;;;;;4972119;28;20464;-74
2023/06/10 00:19:02;;;;;;;10.33;5.50;;;17.00;99.90;;;;;;4970772;28;21023;-75
2023/06/10 00:21:29;;;;;;;6.63;5.17;;;17.00;99.90;;;;;;4968999;28;20561;-74
2023/06/10 00:23:57;;;;;;;8.97;5.70;;;17.00;99.90;;;;;;4966859;28;20471;-74
2023/06/10 00:26:24;;;;;;;11.67;5.67;;;16.90;99.90;;;;;;4970410;28;20495;-75
2023/06/10 00:28:52;;;;;;;8.37;6.13;;;16.90;99.90;;;;;;4969331;28;20476;-75
2023/06/10 00:31:19;;;;;;;9.93;6.13;;;16.90;99.90;;;;;;4962904;28;20456;-73
2023/06/10 00:33:46;;;;;;;9.83;4.80;;;16.80;99.90;;;;;;4966040;28;20559;-73
2023/06/10 00:36:13;;;;;;;11.13;5.37;;;16.80;99.90;;;;;;4972241;28;20523;-74
2023/06/10 00:38:41;;;;;;;12.17;6.13;;;16.70;99.90;;;;;;4967111;28;20448;-74
2023/06/10 00:41:09;;;;;;;7.90;4.87;;;16.70;99.90;;;;;;4965845;28;20924;-74
2023/06/10 00:43:36;;;;;;;8.93;5.43;;;16.70;99.90;;;;;;4961631;28;20501;-73
2023/06/10 00:46:05;;;;;;;9.55;5.90;;;16.60;99.90;;;;;;4966808;28;20449;-72
2023/06/10 00:48:32;;;;;;;10.43;5.97;;;16.60;99.90;;;;;;4966525;28;20225;-73
2023/06/10 00:51:01;;;;;;;11.43;6.97;;;16.60;99.90;;;;;;4969940;28;20450;-74
2023/06/10 00:53:29;;;;;;;13.60;6.32;;;16.60;99.90;;;;;;4970025;28;20491;-72
2023/06/10 00:55:56;;;;;;;12.27;5.78;;;16.50;99.90;;;;;;4967028;28;20294;-72
2023/06/10 00:58:25;;;;;;;8.45;6.07;;;16.50;99.90;;;;;;4966135;28;20243;-72
2023/06/10 01:00:54;;;;;;;11.30;6.70;;;16.40;99.90;;;;;;4968378;28;20233;-73
2023/06/10 01:03:22;;;;;;;9.20;6.05;;;16.40;99.90;;;;;;4968194;28;20231;-73
2023/06/10 01:05:58;;;;;;;12.83;5.77;;;16.30;99.90;;;;;;4964988;28;20728;-73
2023/06/10 01:08:35;;;;;;;9.13;5.00;;;16.30;99.90;;;;;;4965943;28;20477;-73
2023/06/10 01:11:04;;;;;;;9.60;6.50;;;16.30;99.90;;;;;;4978668;28;20687;-74
2023/06/10 01:13:36;;;;;;;11.25;5.40;;;16.20;99.90;;;;;;4980362;28;20466;-72
2023/06/10 01:16:03;;;;;;;12.40;6.65;;;16.20;99.90;;;;;;4984687;28;20362;-72
2023/06/10 01:18:33;;;;;;;10.80;6.03;;;16.10;99.90;;;;;;4990252;28;20202;-73
2023/06/10 01:20:59;;;;;;;9.00;6.32;;;16.10;99.90;;;;;;4973881;28;20201;-72
2023/06/10 01:23:30;;;;;;;13.85;6.72;;;16.10;99.90;;;;;;4975674;28;20308;-74
2023/06/10 01:26:01;;;;;;;13.05;5.45;;;16.00;99.90;;;;;;4972898;28;20287;-72
2023/06/10 01:28:37;;;;;;;12.27;6.20;;;16.10;99.90;;;;;;4973474;28;20223;-74
2023/06/10 01:31:11;;;;;;;13.48;6.80;;;16.00;99.90;;;;;;4971135;28;20214;-72
2023/06/10 01:33:43;;;;;;;9.20;5.60;;;15.90;99.90;;;;;;4968957;28;20282;-74
2023/06/10 01:36:10;;;;;;;9.63;7.03;;;15.90;99.90;;;;;;4966208;28;20644;-74
2023/06/10 01:38:43;;;;;;;9.40;6.43;;;15.90;99.90;;;;;;4971088;28;20194;-72
2023/06/10 01:41:11;;;;;;;8.98;6.35;;;15.90;99.90;;;;;;4969702;28;20525;-72
2023/06/10 01:43:39;;;;;;;13.75;7.03;;;15.80;99.90;;;;;;4980083;28;20282;-73
2023/06/10 01:46:06;;;;;;;12.75;6.05;;;15.80;99.90;;;;;;4980847;28;20236;-73
2023/06/10 01:48:33;;;;;;;10.93;6.28;;;15.70;99.90;;;;;;4984650;28;20315;-74
2023/06/10 01:51:00;;;;;;;9.38;6.55;;;15.70;99.90;;;;;;4975074;28;20316;-72
2023/06/10 01:53:27;;;;;;;10.55;6.00;;;15.70;99.90;;;;;;4972584;28;20262;-73
2023/06/10 01:55:55;;;;;;;9.93;5.65;;;15.60;99.90;;;;;;4972496;28;20204;-73
2023/06/10 01:58:22;;;;;;;10.73;6.40;;;15.60;99.90;;;;;;4969925;28;20298;-71
2023/06/10 02:00:49;;;;;;;10.15;7.03;;;15.60;99.90;;;;;;4968682;28;20294;-75
2023/06/10 02:03:16;;;;;;;10.38;6.75;;;15.50;99.90;;;;;;4977986;28;20274;-76
2023/06/10 02:05:43;;;;;;;8.50;6.32;;;15.50;99.90;;;;;;4972786;28;20292;-73
2023/06/10 02:08:11;;;;;;;8.32;6.25;;;15.40;99.90;;;;;;4968283;28;20220;-73
2023/06/10 02:10:38;;;;;;;13.45;6.90;;;15.40;99.90;;;;;;4964996;28;20214;-75
2023/06/10 02:13:06;;;;;;;12.15;6.43;;;15.40;99.90;;;;;;4966888;28;20743;-74
2023/06/10 02:15:34;;;;;;;10.02;6.88;;;15.30;99.90;;;;;;4967404;28;20227;-74
2023/06/10 02:18:02;;;;;;;9.85;6.40;;;15.30;99.90;;;;;;4973820;28;20275;-72
2023/06/10 02:20:29;;;;;;;17.48;8.30;;;15.20;99.90;;;;;;4972235;28;20221;-71
2023/06/10 02:22:56;;;;;;;14.90;7.50;;;15.20;99.90;;;;;;4973629;28;20238;-73
2023/06/10 02:25:23;;;;;;;11.63;7.10;;;15.20;99.90;;;;;;4975065;28;20299;-72
2023/06/10 02:27:50;;;;;;;11.50;7.20;;;15.10;99.90;;;;;;4979377;28;20261;-71
2023/06/10 02:30:19;;;;;;;12.15;6.68;;;15.10;99.90;;;;;;4973144;28;20209;-74
2023/06/10 02:32:47;;;;;;;9.02;7.25;;;15.00;99.90;;;;;;4968323;28;20224;-74
2023/06/10 02:35:14;;;;;;;13.88;6.55;;;15.00;99.90;;;;;;4973443;28;20210;-74
2023/06/10 02:37:41;;;;;;;15.52;8.10;;;15.00;99.90;;;;;;4970153;28;20203;-74
2023/06/10 02:40:10;;;;;;;12.23;7.30;;;14.90;99.90;;;;;;4968517;28;20294;-74
2023/06/10 02:42:37;;;;;;;9.30;6.47;;;14.90;99.90;;;;;;4973149;28;20732;-74
2023/06/10 02:45:04;;;;;;;9.88;8.05;;;14.90;99.90;;;;;;4974753;28;20234;-74
2023/06/10 02:47:33;;;;;;;10.98;7.47;;;15.00;99.90;;;;;;4972158;28;20309;-73
2023/06/10 02:49:59;;;;;;;10.57;8.57;;;15.00;99.90;;;;;;4972187;28;20282;-75
2023/06/10 02:52:26;;;;;;;9.70;7.75;;;15.00;99.90;;;;;;4974392;28;20230;-70
2023/06/10 02:54:53;;;;;;;12.60;8.80;;;15.00;99.90;;;;;;4975623;28;20226;-72
2023/06/10 02:57:20;;;;;;;11.90;8.57;;;15.00;99.90;;;;;;4975205;28;20203;-73
2023/06/10 02:59:47;;;;;;;10.50;7.88;;;15.00;99.90;;;;;;4969630;28;20289;-71
2023/06/10 03:02:14;;;;;;;14.02;9.45;;;15.10;99.90;;;;;;4971021;28;20230;-74
2023/06/10 03:04:43;;;;;;;18.38;11.15;;;15.10;99.90;;;;;;4968048;28;20211;-75
2023/06/10 03:07:11;;;;;;;13.80;9.48;;;15.10;99.90;;;;;;4976319;28;20210;-75
2023/06/10 03:09:37;;;;;;;13.75;8.77;;;15.00;99.90;;;;;;4974249;28;20202;-75
2023/06/10 03:12:05;;;;;;;16.52;8.90;;;14.90;99.90;;;;;;4970093;28;20226;-72
2023/06/10 03:14:32;;;;;;;12.10;8.27;;;14.90;99.90;;;;;;4969375;28;20257;-73
2023/06/10 03:16:59;;;;;;;9.63;7.95;;;14.90;99.90;;;;;;4975078;28;20305;-75
2023/06/10 03:19:26;;;;;;;10.35;8.13;;;15.00;99.90;;;;;;4975412;28;20198;-74
2023/06/10 03:22:08;;;;;;;10.02;8.75;;;15.10;99.90;;;;;;4969531;28;20258;-74
2023/06/10 03:24:35;;;;;;;10.23;9.13;;;15.10;99.90;;;;;;4970250;28;20670;-76
2023/06/10 03:27:04;;;;;;;12.77;8.90;;;15.10;99.90;;;;;;4967660;28;20213;-75
2023/06/10 03:29:32;;;;;;;10.55;8.73;;;15.20;99.90;;;;;;4969019;28;20207;-74
2023/06/10 03:31:58;;;;;;;12.30;8.05;;;15.10;99.90;;;;;;4971780;28;20615;-72
2023/06/10 03:34:25;;;;;;;14.80;9.20;;;15.20;99.90;;;;;;4968537;28;20230;-72
2023/06/10 03:36:52;;;;;;;11.20;9.00;;;15.20;99.90;;;;;;4974241;28;20743;-72
2023/06/10 03:39:21;;;;;;;11.77;8.90;;;15.20;99.90;;;;;;4971753;28;20203;-74
2023/06/10 03:41:48;;;;;;;13.52;7.88;;;15.30;99.90;;;;;;4974913;28;20209;-72
2023/06/10 03:44:15;;;;;;;10.80;8.43;;;15.40;99.90;;;;;;4974091;28;20226;-73
2023/06/10 03:46:42;;;;;;;11.50;8.43;;;15.40;99.90;;;;;;4973752;28;20235;-74
2023/06/10 03:49:09;;;;;;;12.63;10.25;;;15.40;99.90;;;;;;4967439;28;20234;-75
2023/06/10 03:51:37;;;;;;;8.98;8.05;;;15.40;99.90;;;;;;4972902;28;20240;-74
2023/06/10 03:54:04;;;;;;;10.93;8.55;;;15.50;99.90;;;;;;4968699;28;20236;-71
2023/06/10 03:56:32;;;;;;;11.15;7.53;;;15.40;99.90;;;;;;4977006;28;20252;-72
2023/06/10 03:58:59;;;;;;;12.43;7.70;;;15.40;99.90;;;;;;4981159;28;20198;-72
2023/06/10 04:01:27;;;;;;;7.07;6.20;;;15.40;99.90;;;;;;4986199;28;20280;-74
2023/06/10 04:03:55;;;;;;;14.05;7.40;;;15.40;99.90;;;;;;4968192;28;20283;-74
2023/06/10 04:06:25;;;;;;;12.45;7.22;;;15.40;99.90;;;;;;4966397;28;20261;-73
2023/06/10 04:08:52;;;;;;;9.80;8.52;;;15.40;99.90;;;;;;4980375;28;20214;-74
2023/06/10 04:11:19;;;;;;;9.57;7.43;;;15.40;99.90;;;;;;4967926;28;20655;-75
2023/06/10 04:13:47;;;;;;;14.77;7.60;;;15.40;99.90;;;;;;4972335;28;20315;-71
2023/06/10 04:16:14;;;;;;;10.18;6.50;;;15.30;99.90;;;;;;4968388;28;20254;-73
2023/06/10 04:18:41;;;;;;;12.25;7.10;;;15.40;99.90;;;;;;4969535;28;20203;-73
2023/06/10 04:21:09;;;;;;;11.05;6.28;;;15.40;99.90;;;;;;4970568;28;20226;-73
2023/06/10 04:23:36;;;;;;;14.57;6.47;;;15.40;99.90;;;;;;4969439;28;20231;-72
2023/06/10 04:26:05;;;;;;;9.60;6.80;;;15.40;99.90;;;;;;4966573;28;20640;-74
2023/06/10 04:28:32;;;;;;;11.13;6.68;;;15.40;99.90;;;;;;4972133;28;20222;-73
2023/06/10 04:31:01;;;;;;;12.63;7.75;;;15.40;99.90;;;;;;4965849;28;20207;-74
2023/06/10 04:33:28;;;;;;;15.50;6.70;;;15.30;99.90;;;;;;4969695;28;20257;-74
2023/06/10 04:35:55;;;;;;;10.98;6.40;;;15.30;99.90;;;;;;4971966;28;20296;-72
2023/06/10 04:38:23;;;;;;;7.60;6.53;;;15.30;99.90;;;;;;4966934;28;20255;-72
2023/06/10 04:40:50;;;;;;;8.90;6.75;;;15.40;99.90;;;;;;4972197;28;20652;-72
2023/06/10 04:43:17;;;;;;;6.38;5.65;;;15.40;99.90;;;;;;4964301;28;20673;-73
2023/06/10 04:45:44;;;;;;;11.77;8.95;;;15.50;99.90;;;;;;4971065;28;20729;-75
2023/06/10 04:48:13;;;;;;;7.18;6.00;;;15.40;99.90;;;;;;4970991;28;20216;-73
2023/06/10 04:50:40;;;;;;;8.85;7.50;;;15.40;99.90;;;;;;4978126;28;20195;-74
2023/06/10 04:53:07;;;;;;;8.50;6.45;;;15.40;99.90;;;;;;4967829;28;20759;-73
2023/06/10 04:55:34;;;;;;;9.75;7.20;;;15.50;99.90;;;;;;4971095;28;20214;-74
2023/06/10 04:58:01;;;;;;;9.82;6.75;;;15.50;99.90;;;;;;4967446;28;20195;-73
2023/06/10 05:00:28;;;;;;;10.95;7.28;;;15.40;99.90;;;;;;4970409;28;20304;-74
2023/06/10 05:02:55;;;;;;;9.65;6.53;;;15.40;99.90;;;;;;4966250;28;20263;-75
2023/06/10 05:05:24;;;;;;;9.45;6.22;;;15.40;99.90;;;;;;4968399;28;20212;-75
2023/06/10 05:07:51;;;;;;;10.73;7.22;;;15.50;99.90;;;;;;4966138;28;20299;-75
2023/06/10 05:10:17;;;;;;;15.13;7.05;;;15.60;99.90;;;;;;4969861;28;20296;-73
2023/06/10 05:12:44;;;;;;;7.60;6.90;;;15.60;99.90;;;;;;4969327;28;20681;-73
2023/06/10 05:15:12;;;;;;;10.38;7.00;;;15.70;99.90;;;;;;4971030;28;20229;-72
2023/06/10 05:17:39;;;;;;;13.45;7.25;;;15.80;99.90;;;;;;4968557;28;20268;-75
2023/06/10 05:20:08;;;;;;;9.35;7.43;;;15.90;99.90;;;;;;4967679;28;20283;-75
2023/06/10 05:22:36;;;;;;;11.23;8.25;;;15.80;99.90;;;;;;4965799;28;20265;-74
2023/06/10 05:25:03;;;;;;;13.27;7.22;;;15.80;99.90;;;;;;4967030;28;20235;-74
2023/06/10 05:27:30;;;;;;;7.73;6.50;;;15.80;99.90;;;;;;4968772;28;20287;-73
2023/06/10 05:29:57;;;;;;;10.52;7.05;;;15.90;99.90;;;;;;4964440;28;20484;-73
2023/06/10 05:32:24;;;;;;;6.68;5.88;;;16.10;99.90;;;;;;4973698;28;20225;-74
2023/06/10 05:34:51;;;;;;;11.50;6.80;;;16.20;99.90;;;;;;4968858;28;20288;-73
2023/06/10 05:37:17;;;;;;;7.63;6.20;;;16.40;99.90;;;;;;4971160;28;20457;-74
2023/06/10 05:39:46;;;;;;;11.20;6.30;;;16.60;99.90;;;;;;4970370;28;20442;-73
2023/06/10 05:42:13;;;;;;;9.80;7.03;;;16.80;99.90;;;;;;4967718;28;20559;-73
2023/06/10 05:44:40;;;;;;;7.80;5.80;;;17.00;99.90;;;;;;4970632;28;21310;-72
2023/06/10 05:47:07;;;;;;;7.30;6.23;;;17.20;99.90;;;;;;4970175;28;20446;-73
2023/06/10 05:49:34;;;;;;;14.10;6.40;;;17.30;99.90;;;;;;4975564;28;20491;-72
2023/06/10 05:52:01;;;;;;;7.97;6.57;;;17.60;99.90;;;;;;4967580;28;20461;-76
2023/06/10 05:54:28;;;;;;;9.90;5.87;;;18.60;99.90;;;;;;4970540;28;20445;-72
2023/06/10 05:56:56;;;;;;;6.50;4.87;;;20.10;99.90;;;;;;4977906;28;20442;-74
2023/06/10 05:59:23;;;;;;;11.13;6.07;;;21.50;99.90;;;;;;4977311;28;20493;-73
2023/06/10 06:01:50;;;;;;;6.17;5.07;;;21.30;99.90;;;;;;4976688;28;20441;-72
2023/06/10 06:04:17;;;;;;;8.10;5.00;;;21.30;99.90;;;;;;4973097;28;20461;-73
2023/06/10 06:06:44;;;;;;;7.57;5.27;;;21.30;99.90;;;;;;4978715;28;20443;-71
2023/06/10 06:09:11;;;;;;;8.70;5.50;;;21.10;99.90;;;;;;4972603;28;20557;-72
2023/06/10 06:11:44;;;;;;;8.63;5.90;;;20.60;99.90;;;;;;4985031;28;20446;-72
2023/06/10 06:14:12;;;;;;;7.27;5.93;;;20.30;99.90;;;;;;4977937;28;20456;-72
2023/06/10 06:16:39;;;;;;;9.83;5.07;;;20.10;99.90;;;;;;4977883;28;20459;-73
2023/06/10 06:19:06;;;;;;;9.73;5.83;;;20.80;99.90;;;;;;4972963;28;20442;-75
2023/06/10 06:21:33;;;;;;;9.20;5.50;;;21.30;99.90;;;;;;4975823;28;20528;-75
2023/06/10 06:24:00;;;;;;;8.27;5.13;;;21.20;99.90;;;;;;4971932;28;20551;-74
2023/06/10 06:26:27;;;;;;;11.83;6.27;;;21.40;99.90;;;;;;4971742;28;20503;-73
2023/06/10 06:28:54;;;;;;;8.93;4.80;;;22.90;99.90;;;;;;4966831;28;20465;-74
2023/06/10 06:31:22;;;;;;;7.00;5.47;;;24.70;95.30;;;;;;4967644;28;20469;-73
2023/06/10 06:33:49;;;;;;;7.13;5.10;;;25.90;91.00;;;;;;4968087;28;20549;-71
2023/06/10 06:36:16;;;;;;;7.70;4.50;;;26.30;88.80;;;;;;4973037;28;20536;-73
2023/06/10 06:38:43;;;;;;;6.93;4.40;;;27.10;86.00;;;;;;4968078;28;20453;-73
2023/06/10 06:41:11;;;;;;;6.33;5.30;;;28.40;82.60;;;;;;4968023;28;20532;-73
2023/06/10 06:43:38;;;;;;;5.03;4.10;;;29.40;78.20;;;;;;4972480;28;20504;-73
2023/06/10 06:46:05;;;;;;;8.30;4.50;;;29.80;76.90;;;;;;4973421;28;20472;-75
2023/06/10 06:48:33;;;;;;;7.10;5.30;;;30.20;74.70;;;;;;4974488;28;20552;-74
2023/06/10 06:51:00;;;;;;;7.53;4.63;;;30.50;73.30;;;;;;4967638;28;20521;-74
2023/06/10 06:53:27;;;;;;;11.13;5.17;;;30.90;72.10;;;;;;4969299;28;20549;-74
2023/06/10 06:55:54;;;;;;;7.37;4.77;;;31.40;70.20;;;;;;4971440;28;20445;-74
2023/06/10 06:58:20;;;;;;;9.60;5.37;;;31.40;69.70;;;;;;4969834;28;21008;-74
2023/06/10 07:00:47;;;;;;;8.93;5.37;;;31.60;68.90;;;;;;4969844;28;20528;-74
2023/06/10 07:03:15;;;;;;;4.80;4.27;;;31.60;68.40;;;;;;4968512;28;20537;-72
2023/06/10 07:05:43;;;;;;;8.77;4.60;;;31.80;68.20;;;;;;4971598;28;20529;-73
2023/06/10 07:08:11;;;;;;;6.80;4.47;;;32.00;68.60;;;;;;4963585;28;20803;-74
2023/06/10 07:10:38;;;;;;;7.03;5.10;;;32.10;67.90;;;;;;4965243;28;20546;-73
2023/06/10 07:13:05;;;;;;;5.70;4.30;;;31.70;66.70;;;;;;4971889;28;20476;-73
2023/06/10 07:15:33;;;;;;;9.63;5.40;;;32.20;67.10;;;;;;4966630;28;20456;-72
2023/06/10 07:18:00;;;;;;;7.33;4.83;;;32.30;65.60;;;;;;4970587;28;20452;-74
2023/06/10 07:20:27;;;;;;;7.47;4.40;;;32.10;65.20;;;;;;4971909;28;20541;-71
2023/06/10 07:22:55;;;;;;;5.70;4.40;;;32.20;65.10;;;;;;4968511;28;20888;-74
2023/06/10 07:25:22;;;;;;;6.83;4.90;;;32.30;65.10;;;;;;4967528;28;20438;-73
2023/06/10 07:27:50;;;;;;;6.60;4.60;;;32.10;65.30;;;;;;4965079;28;20452;-74
2023/06/10 07:30:17;;;;;;;7.23;5.10;;;32.70;64.70;;;;;;4972000;28;20495;-73
2023/06/10 07:32:44;;;;;;;8.07;4.83;;;32.80;63.70;;;;;;4967603;28;20534;-73
2023/06/10 07:35:11;;;;;;;6.87;4.57;;;32.70;63.00;;;;;;4971096;28;20810;-75
2023/06/10 07:37:38;;;;;;;9.63;4.80;;;32.50;63.30;;;;;;4969355;28;20446;-73
2023/06/10 07:40:08;;;;;;;7.03;4.23;;;32.50;64.10;;;;;;4968069;28;20446;-72
2023/06/10 07:42:36;;;;;;;9.50;5.73;;;32.50;64.10;;;;;;4968778;28;20470;-73
2023/06/10 07:45:03;;;;;;;8.83;6.13;;;32.70;63.90;;;;;;4967223;28;20500;-72
2023/06/10 07:47:30;;;;;;;5.03;4.30;;;33.40;63.10;;;;;;4969432;28;20525;-72
2023/06/10 07:49:57;;;;;;;8.03;5.07;;;33.10;62.50;;;;;;4970143;28;20918;-73
2023/06/10 07:52:25;;;;;;;9.07;4.43;;;33.60;62.00;;;;;;4970556;28;20844;-74
2023/06/10 07:54:52;;;;;;;7.97;4.37;;;34.00;61.30;;;;;;4969787;28;20484;-72
2023/06/10 07:57:20;;;;;;;7.33;4.80;;;33.80;61.10;;;;;;4969405;28;20482;-73
2023/06/10 07:59:48;;;;;;;7.33;4.80;;;33.80;61.00;;;;;;4975752;28;20485;-73
2023/06/10 08:02:15;;;;;;;7.53;4.63;;;34.00;60.40;;;;;;4970838;28;20469;-74
2023/06/10 08:04:42;;;;;;;7.57;5.47;;;33.80;60.00;;;;;;4967868;28;20466;-71
2023/06/10 08:07:09;;;;;;;9.80;5.10;;;33.40;60.30;;;;;;4975712;28;20441;-75
2023/06/10 08:09:36;;;;;;;7.73;4.30;;;33.50;60.80;;;;;;4966312;28;20561;-73
2023/06/10 08:12:03;;;;;;;7.53;6.07;;;34.00;60.10;;;;;;4965074;28;20487;-72
2023/06/10 08:14:31;;;;;;;8.43;4.13;;;34.70;59.00;;;;;;4969367;28;20460;-72
2023/06/10 08:16:58;;;;;;;7.93;4.50;;;35.10;58.30;;;;;;4966136;28;20446;-75
2023/06/10 08:19:25;;;;;;;6.70;4.60;;;35.60;57.80;;;;;;4968787;28;20544;-72
2023/06/10 08:21:52;;;;;;;6.03;4.37;;;34.70;57.60;;;;;;4966314;28;20450;-71
2023/06/10 08:24:19;;;;;;;7.57;5.00;;;34.60;58.00;;;;;;4977375;28;20546;-73
2023/06/10 08:26:46;;;;;;;6.00;4.37;;;34.40;58.50;;;;;;4981557;28;20516;-75
2023/06/10 08:29:14;;;;;;;7.80;4.90;;;34.90;58.00;;;;;;4967947;28;20504;-73
2023/06/10 08:31:44;;;;;;;9.70;5.07;;;35.10;57.90;;;;;;4967468;28;20545;-74
2023/06/10 08:34:11;;;;;;;12.43;4.97;;;35.50;57.80;;;;;;4966984;28;20534;-72
2023/06/10 08:36:38;;;;;;;5.30;4.57;;;35.70;57.30;;;;;;4964390;28;20451;-73
2023/06/10 08:39:05;;;;;;;9.83;5.50;;;35.80;56.50;;;;;;4969086;28;20517;-74
2023/06/10 08:41:37;;;;;;;6.83;4.97;;;35.80;56.50;;;;;;4959213;28;20451;-72
2023/06/10 08:44:10;;;;;;;5.77;4.73;;;35.90;55.70;;;;;;4973495;28;20552;-72
2023/06/10 08:46:38;;;;;;;5.77;5.00;;;36.10;56.00;;;;;;4966320;28;20468;-72
2023/06/10 08:49:08;;;;;;;8.60;5.40;;;36.00;56.10;;;;;;4967155;28;20473;-73
2023/06/10 08:51:36;;;;;;;8.33;6.07;;;35.90;56.00;;;;;;4962765;28;20525;-73
2023/06/10 08:54:12;;;;;;;11.60;5.27;;;35.60;55.40;;;;;;4973138;28;20477;-74
2023/06/10 08:56:41;;;;;;;10.00;5.20;;;35.40;56.70;;;;;;4965913;28;20537;-74
2023/06/10 08:59:10;;;;;;;12.20;5.33;;;36.00;55.80;;;;;;4967693;28;20465;-73
2023/06/10 09:01:37;;;;;;;8.00;4.77;;;35.70;55.30;;;;;;4966079;28;20446;-73
2023/06/10 09:04:09;;;;;;;8.00;5.00;;;35.40;55.90;;;;;;4966188;28;20479;-72
2023/06/10 09:06:37;;;;;;;6.70;5.10;;;35.70;55.40;;;;;;4962306;28;20466;-75
2023/06/10 09:09:07;;;;;;;10.53;4.77;;;35.70;56.00;;;;;;4969334;28;20548;-74
2023/06/10 09:11:34;;;;;;;8.07;5.10;;;35.80;55.80;;;;;;4970422;28;20507;-72
2023/06/10 09:14:02;;;;;;;5.60;4.47;;;35.90;55.40;;;;;;4967512;28;20470;-73
2023/06/10 09:16:29;;;;;;;9.43;5.00;;;36.20;54.40;;;;;;4969252;28;20448;-73
2023/06/10 09:18:58;;;;;;;7.40;4.47;;;35.50;55.50;;;;;;4968574;28;20492;-72
2023/06/10 09:21:27;;;;;;;6.30;4.43;;;35.10;55.90;;;;;;4966940;28;20441;-71
2023/06/10 09:24:00;;;;;;;7.43;4.53;;;35.30;55.70;;;;;;4968490;28;20537;-73
2023/06/10 09:26:29;;;;;;;10.40;4.80;;;35.20;56.40;;;;;;4963851;28;20946;-74
2023/06/10 09:29:03;;;;;;;17.63;5.73;;;34.40;56.60;;;;;;4964578;28;20526;-74
2023/06/10 09:31:31;;;;;;;10.60;5.30;;;33.90;57.20;;;;;;4962379;28;20434;-73
2023/06/10 09:34:06;;;;;;;6.43;4.20;;;33.50;58.00;;;;;;4962745;28;20474;-74
2023/06/10 09:36:35;;;;;;;7.80;4.57;;;32.90;58.40;;;;;;4966299;28;20434;-73
2023/06/10 09:39:02;;;;;;;8.23;4.40;;;32.60;59.60;;;;;;4966202;28;20442;-74
2023/06/10 09:41:36;;;;;;;5.80;4.37;;;32.10;59.70;;;;;;4963836;28;20507;-74
2023/06/10 09:44:12;;;;;;;5.90;4.43;;;32.00;60.00;;;;;;4966608;28;20462;-73
2023/06/10 09:46:39;;;;;;;5.60;4.03;;;31.80;60.10;;;;;;4968531;28;20550;-72
2023/06/10 09:49:07;;;;;;;37.10;6.80;;;31.70;60.30;;;;;;4964477;28;20494;-72
2023/06/10 09:51:35;;;;;;;11.27;5.03;;;31.80;60.70;;;;;;4960463;28;20551;-73
2023/06/10 09:54:04;;;;;;;10.70;4.33;;;31.90;61.00;;;;;;4964437;28;20466;-72
2023/06/10 09:56:35;;;;;;;7.83;4.57;;;32.20;61.40;;;;;;4968806;28;20528;-72
2023/06/10 09:59:03;;;;;;;8.60;4.40;;;32.50;60.70;;;;;;4970379;28;20446;-73
2023/06/10 10:01:33;;;;;;;7.00;4.23;;;32.70;60.00;;;;;;4966217;28;20446;-73
2023/06/10 10:04:00;;;;;;;7.80;4.40;;;32.70;59.40;;;;;;4966296;28;20997;-73
2023/06/10 10:06:28;;;;;;;8.13;5.03;;;32.60;58.70;;;;;;4970437;28;20548;-75
2023/06/10 10:08:56;;;;;;;7.73;3.47;;;32.90;58.90;;;;;;4967430;28;20453;-73
2023/06/10 10:11:25;;;;;;;6.93;4.90;;;32.90;58.60;;;;;;4963447;28;20514;-74
2023/06/10 10:13:54;;;;;;;14.37;4.50;;;33.10;58.30;;;;;;4962341;28;20473;-74
2023/06/10 10:16:22;;;;;;;5.60;4.03;;;33.10;58.00;;;;;;4967736;28;20438;-72
2023/06/10 10:18:54;;;;;;;7.40;4.20;;;33.00;58.60;;;;;;4963323;28;20449;-71
2023/06/10 10:21:25;;;;;;;6.43;4.20;;;33.00;58.70;;;;;;4966516;28;20480;-74
2023/06/10 10:23:59;;;;;;;8.13;4.60;;;32.60;58.80;;;;;;4971614;28;20466;-75
2023/06/10 10:26:27;;;;;;;8.30;4.67;;;32.30;59.80;;;;;;4969287;28;20460;-72
2023/06/10 10:29:06;;;;;;;10.83;5.63;;;31.90;58.20;;;;;;4965935;28;20443;-73
2023/06/10 10:31:35;;;;;;;7.63;5.27;;;31.90;58.00;;;;;;4968393;28;20885;-73
2023/06/10 10:34:07;;;;;;;8.00;3.90;;;31.30;59.60;;;;;;4974948;28;20884;-74
2023/06/10 10:36:35;;;;;;;5.80;4.40;;;30.90;61.10;;;;;;4977199;28;20536;-72
2023/06/10 10:39:05;;;;;;;6.20;4.00;;;30.50;61.50;;;;;;4977786;28;20445;-73
2023/06/10 10:41:33;;;;;;;6.27;4.70;;;29.90;63.00;;;;;;4966652;28;20474;-73
2023/06/10 10:44:01;;;;;;;6.27;4.40;;;29.60;62.70;;;;;;4971638;28;20473;-73
2023/06/10 10:46:28;;;;;;;6.93;4.93;;;29.10;59.90;;;;;;4985214;28;20465;-72
2023/06/10 10:48:58;;;;;;;9.20;4.80;;;28.30;60.60;;;;;;4977650;28;20445;-74
2023/06/10 10:51:25;;;;;;;6.87;4.30;;;27.90;61.60;;;;;;4970560;28;21097;-73
2023/06/10 10:54:14;;;;;;;8.60;4.27;;;27.60;64.40;;;;;;4976316;28;20461;-73
2023/06/10 10:56:56;;;;;;;6.63;4.40;;;27.50;65.50;;;;;;4969731;28;20442;-72
2023/06/10 10:59:23;;;;;;;6.53;4.60;;;27.20;65.30;;;;;;4972912;28;20535;-73
2023/06/10 11:01:51;;;;;;;6.47;3.70;;;27.00;67.10;;;;;;4970987;28;20521;-73
2023/06/10 11:04:19;;;;;;;16.30;6.80;;;27.10;67.00;;;;;;4974014;28;20615;-74
2023/06/10 11:06:53;;;;;;;14.10;6.07;;;27.10;66.20;;;;;;4970693;28;20513;-71
2023/06/10 11:09:29;;;;;;;7.10;4.30;;;27.30;66.50;;;;;;4972151;28;20437;-71
2023/06/10 11:11:59;;;;;;;8.20;5.00;;;27.30;66.00;;;;;;4977079;28;20457;-72
2023/06/10 11:14:31;;;;;;;11.10;5.10;;;27.10;66.90;;;;;;4973082;28;20442;-72
2023/06/10 11:16:59;;;;;;;7.20;4.00;;;27.40;68.70;;;;;;4978173;28;20460;-74
2023/06/10 11:19:38;;;;;;;5.80;4.30;;;27.60;66.00;;;;;;4969033;28;20494;-71
2023/06/10 11:22:07;;;;;;;11.60;4.80;;;27.50;62.60;;;;;;4968996;28;20509;-74
2023/06/10 11:24:36;;;;;;;11.43;3.93;;;27.60;62.70;;;;;;4975231;28;20561;-75
2023/06/10 11:27:24;;;;;;;7.60;4.57;;;27.70;61.60;;;;;;4972912;28;20454;-74
2023/06/10 11:30:12;;;;;;;6.87;3.43;;;27.70;60.10;;;;;;4970430;28;20492;-75
2023/06/10 11:32:39;;;;;;;5.40;4.10;;;27.60;62.20;;;;;;4967212;28;20466;-72
2023/06/10 11:35:09;;;;;;;4.23;3.57;;;27.40;62.20;;;;;;4969363;28;20475;-71
2023/06/10 11:37:36;;;;;;;6.10;3.37;;;27.60;62.00;;;;;;4976002;28;20441;-74
2023/06/10 11:40:07;;;;;;;7.43;4.10;;;27.50;59.70;;;;;;4972314;28;20496;-74
2023/06/10 11:42:39;;;;;;;5.37;3.80;;;27.60;60.60;;;;;;4974456;28;21039;-72
2023/06/10 11:45:08;;;;;;;10.10;4.03;;;27.70;58.90;;;;;;4975909;28;20489;-72
2023/06/10 11:47:35;;;;;;;4.63;3.63;;;27.70;57.50;;;;;;4973349;28;20473;-73
2023/06/10 11:50:02;;;;;;;7.40;3.63;;;27.60;58.30;;;;;;4970055;28;20493;-71
2023/06/10 11:52:32;;;;;;;7.90;3.80;;;27.70;59.20;;;;;;4970888;28;20481;-76
2023/06/10 11:54:59;;;;;;;3.90;3.30;;;27.80;59.10;;;;;;4969311;28;20454;-73
2023/06/10 11:57:27;;;;;;;3.90;3.37;;;27.90;57.90;;;;;;4971723;28;20461;-74
2023/06/10 11:59:54;;;;;;;4.10;3.60;;;28.00;56.70;;;;;;4969466;28;20449;-74
2023/06/10 12:02:22;;;;;;;6.73;4.03;;;28.00;56.10;;;;;;4974216;28;20839;-72
2023/06/10 12:04:49;;;;;;;3.50;3.20;;;27.90;56.70;;;;;;4969269;28;20823;-74
2023/06/10 12:07:22;;;;;;;3.67;3.30;;;27.80;56.60;;;;;;4969160;28;20485;-73
2023/06/10 12:10:00;;;;;;;7.10;3.60;;;27.90;56.70;;;;;;4971861;28;20453;-72
2023/06/10 12:12:29;;;;;;;3.73;3.10;;;27.70;57.50;;;;;;4969997;28;20474;-71
2023/06/10 12:14:57;;;;;;;5.07;3.67;;;27.60;57.50;;;;;;4967997;28;20445;-72
2023/06/10 12:17:37;;;;;;;3.67;3.33;;;27.60;57.80;;;;;;4969542;28;20454;-73
2023/06/10 12:20:07;;;;;;;6.53;3.47;;;27.60;58.30;;;;;;4970645;28;20541;-73
2023/06/10 12:22:38;;;;;;;7.17;4.03;;;27.70;57.60;;;;;;4963115;28;20481;-74
2023/06/10 12:25:07;;;;;;;5.30;3.30;;;27.70;57.10;;;;;;4971919;28;20525;-73
2023/06/10 12:27:36;;;;;;;4.27;3.13;;;27.70;57.00;;;;;;4968837;28;20446;-74
2023/06/10 12:30:05;;;;;;;6.30;3.47;;;27.80;56.90;;;;;;4969605;28;20486;-73
2023/06/10 12:32:40;;;;;;;10.13;3.47;;;27.90;56.60;;;;;;4969580;28;21021;-74
2023/06/10 12:35:09;;;;;;;5.97;3.90;;;27.80;56.10;;;;;;4967922;28;20450;-72
2023/06/10 12:37:36;;;;;;;5.23;3.07;;;27.90;55.80;;;;;;4969665;28;20450;-72
2023/06/10 12:40:06;;;;;;;5.87;3.63;;;28.00;56.30;;;;;;4965934;28;20493;-71
2023/06/10 12:42:36;;;;;;;8.10;4.00;;;28.10;57.20;;;;;;4972427;28;20499;-75
2023/06/10 12:45:06;;;;;;;6.53;3.43;;;28.00;57.70;;;;;;4968514;28;20457;-72
2023/06/10 12:47:35;;;;;;;5.50;3.57;;;28.00;57.50;;;;;;4968719;28;21122;-73
2023/06/10 12:50:04;;;;;;;11.13;6.40;;;28.00;57.70;;;;;;4966161;28;20447;-72